Time;durP1;ratioP1;P1;durP2;ratioP2;P2;SDS_P1;SDS_P2;PMS_P1;PMS_P2;Temp;Humidity;BMP_temperature;BMP_pressure;BME280_temperature;BME280_humidity;BME280_pressure;Samples;Min_cycle;Max_cycle;Signal;HPM_P1;HPM_P2
2022/02/20 00:00:52;;;;;;;7.83;1.98;;;;;;;3.15;60.78;98900.48;1663490;86;20977;-71
2022/02/20 00:03:22;;;;;;;8.13;2.00;;;;;;;3.13;60.83;98902.13;1639917;86;21019;-70
2022/02/20 00:05:56;;;;;;;;;;;;;;;3.11;60.87;98913.85;1666776;86;20969;-69
2022/02/20 00:08:23;;;;;;;7.45;2.00;;;;;;;3.09;61.05;98914.67;1664244;86;20137;-68
2022/02/20 00:10:52;;;;;;;6.50;2.45;;;;;;;3.07;61.07;98903.25;1664212;86;21497;-71
2022/02/20 00:13:20;;;;;;;6.58;2.20;;;;;;;3.06;61.14;98905.72;1663951;86;21146;-69
2022/02/20 00:15:47;;;;;;;5.60;2.27;;;;;;;3.07;61.23;98911.99;1639180;86;21075;-72
2022/02/20 00:18:15;;;;;;;6.85;2.35;;;;;;;3.07;61.15;98916.87;1664332;86;21054;-70
2022/02/20 00:20:49;;;;;;;8.83;2.98;;;;;;;3.06;61.31;98916.61;1664188;86;20993;-71
2022/02/20 00:23:18;;;;;;;4.28;2.08;;;;;;;3.06;61.30;98927.50;1664280;86;21326;-71
2022/02/20 00:25:52;;;;;;;5.40;2.02;;;;;;;3.07;61.21;98926.97;1664066;86;21093;-71
2022/02/20 00:28:26;;;;;;;5.33;2.27;;;;;;;3.06;61.30;98926.68;1661295;86;21550;-71
2022/02/20 00:30:52;;;;;;;7.83;2.52;;;;;;;3.06;61.28;98929.41;1664229;86;20929;-70
2022/02/20 00:33:24;;;;;;;11.38;2.08;;;;;;;3.03;61.33;98926.17;1639759;86;21480;-70
2022/02/20 00:35:52;;;;;;;5.35;1.75;;;;;;;3.02;61.39;98922.38;1640662;86;21017;-69
2022/02/20 00:38:20;;;;;;;5.40;1.85;;;;;;;3.03;61.50;98934.34;1664281;86;21175;-70
2022/02/20 00:40:52;;;;;;;9.00;2.83;;;;;;;3.01;61.52;98929.72;1664095;84;21081;-70
2022/02/20 00:43:21;;;;;;;9.20;3.27;;;;;;;2.98;61.56;98945.27;1664655;86;21025;-69
2022/02/20 00:45:49;;;;;;;6.15;1.92;;;;;;;2.97;61.61;98939.54;1664170;86;21048;-68
2022/02/20 00:48:22;;;;;;;9.63;2.30;;;;;;;2.98;61.63;98932.20;1664092;86;21041;-69
2022/02/20 00:50:49;;;;;;;6.08;2.27;;;;;;;2.98;61.74;98938.46;1664325;86;22242;-69
2022/02/20 00:53:17;;;;;;;5.45;2.10;;;;;;;2.96;61.71;98942.01;1656640;86;21036;-69
2022/02/20 00:55:44;;;;;;;7.20;2.22;;;;;;;2.95;61.80;98947.73;1637193;87;20889;-70
2022/02/20 00:58:13;;;;;;;7.65;2.47;;;;;;;2.95;61.96;98950.46;1637213;86;21057;-69
2022/02/20 01:00:43;;;;;;;4.83;1.80;;;;;;;2.94;61.92;98952.36;1637091;87;21028;-69
2022/02/20 01:03:09;;;;;;;7.05;1.95;;;;;;;2.92;61.90;98954.00;1637298;87;21079;-69
2022/02/20 01:05:37;;;;;;;8.65;2.08;;;;;;;2.94;61.94;98956.98;1637137;87;20955;-68
2022/02/20 01:08:08;;;;;;;3.77;1.90;;;;;;;2.92;62.04;98960.81;1637145;87;21009;-70
2022/02/20 01:10:38;;;;;;;6.42;2.08;;;;;;;2.90;62.00;98969.80;1637325;87;21433;-70
2022/02/20 01:13:05;;;;;;;4.17;1.85;;;;;;;2.90;62.13;98973.09;1637230;87;21063;-70
2022/02/20 01:15:34;;;;;;;9.08;2.87;;;;;;;2.89;62.19;98976.34;1637412;87;22035;-69
2022/02/20 01:18:02;;;;;;;9.75;2.47;;;;;;;2.87;62.36;98979.07;1637003;87;20986;-70
2022/02/20 01:20:29;;;;;;;6.97;2.52;;;;;;;2.85;62.41;98988.88;1637553;87;21078;-70
2022/02/20 01:22:59;;;;;;;8.15;2.12;;;;;;;2.84;62.70;98985.08;1637136;87;21019;-70
2022/02/20 01:25:32;;;;;;;8.08;2.58;;;;;;;2.83;62.75;98993.81;1637474;87;20960;-69
2022/02/20 01:28:07;;;;;;;5.87;2.37;;;;;;;2.83;62.87;98985.66;1637196;87;21338;-70
2022/02/20 01:30:34;;;;;;;8.35;2.20;;;;;;;2.82;63.04;98985.37;1636890;87;20961;-69
2022/02/20 01:33:05;;;;;;;7.85;2.00;;;;;;;2.80;63.19;98993.81;1637307;86;20937;-70
2022/02/20 01:35:41;;;;;;;6.78;2.70;;;;;;;2.80;63.43;98993.81;1637541;87;21033;-69
2022/02/20 01:38:15;;;;;;;6.60;2.22;;;;;;;2.83;63.65;99002.52;1637446;87;21016;-69
2022/02/20 01:40:46;;;;;;;16.87;2.50;;;;;;;2.84;63.75;99002.77;1637874;87;21176;-68
2022/02/20 01:43:14;;;;;;;5.95;2.27;;;;;;;2.87;63.72;99015.27;1615403;87;20961;-70
2022/02/20 01:45:45;;;;;;;8.38;2.62;;;;;;;2.90;63.75;99011.19;1637213;86;21482;-70
2022/02/20 01:48:16;;;;;;;9.55;2.90;;;;;;;2.93;63.74;99009.27;1637100;87;20917;-69
2022/02/20 01:50:47;;;;;;;6.03;2.67;;;;;;;2.96;63.77;99011.95;1637903;87;21060;-70
2022/02/20 01:53:18;;;;;;;8.10;2.35;;;;;;;2.98;63.71;99013.86;1640821;84;21155;-69
2022/02/20 01:55:47;;;;;;;8.63;3.00;;;;;;;2.99;63.81;99022.27;1664184;86;21037;-70
2022/02/20 01:58:32;;;;;;;6.55;2.27;;;;;;;3.00;63.75;99023.35;1643611;86;21110;-71
2022/02/20 02:01:07;;;;;;;9.05;2.72;;;;;;;3.01;63.87;99022.81;1635224;86;20994;-71
2022/02/20 02:03:38;;;;;;;14.03;3.35;;;;;;;3.01;63.98;99024.17;1663144;86;21100;-70
2022/02/20 02:06:17;;;;;;;7.87;2.67;;;;;;;3.03;64.16;99034.24;1657086;86;21030;-69
2022/02/20 02:08:44;;;;;;;7.42;2.75;;;;;;;3.01;64.07;99022.81;1664520;86;21021;-69
2022/02/20 02:11:13;;;;;;;8.43;2.67;;;;;;;3.01;64.19;99020.09;1661718;86;20990;-70
2022/02/20 02:13:43;;;;;;;7.17;2.98;;;;;;;3.00;64.32;99026.08;1662568;86;21447;-70
2022/02/20 02:16:34;;;;;;;8.05;3.58;;;;;;;2.98;64.37;99024.74;1664470;86;21096;-69
2022/02/20 02:19:18;;;;;;;9.65;3.35;;;;;;;2.96;64.49;99024.20;1551913;91;21636;-69
2022/02/20 02:22:02;;;;;;;7.90;3.17;;;;;;;2.93;64.47;99022.88;1626919;87;21045;-70
2022/02/20 02:24:49;;;;;;;7.28;2.92;;;;;;;2.90;64.57;99024.23;1669872;86;21024;-70
2022/02/20 02:27:21;;;;;;;9.25;3.42;;;;;;;2.87;64.74;99022.61;1638838;86;21037;-66
2022/02/20 02:29:54;;;;;;;7.42;2.65;;;;;;;2.84;64.86;99025.37;1663808;86;21065;-69
2022/02/20 02:32:25;;;;;;;6.80;2.42;;;;;;;2.82;65.03;99027.55;1639919;86;21125;-71
2022/02/20 02:34:57;;;;;;;7.45;3.35;;;;;;;2.81;65.07;99027.29;1664323;86;21411;-70
2022/02/20 02:37:27;;;;;;;13.15;3.60;;;;;;;2.80;65.17;99022.39;1664270;86;20936;-68
2022/02/20 02:39:56;;;;;;;7.97;2.92;;;;;;;2.81;65.24;99035.45;1664351;86;20966;-69
2022/02/20 02:42:25;;;;;;;6.80;2.60;;;;;;;2.78;65.39;99041.46;1664412;86;20962;-69
2022/02/20 02:44:54;;;;;;;8.43;3.08;;;;;;;2.77;65.57;99043.90;1664554;84;21140;-67
2022/02/20 02:47:22;;;;;;;8.03;2.37;;;;;;;2.75;65.62;99045.55;1664166;86;21009;-70
2022/02/20 02:49:49;;;;;;;9.85;2.20;;;;;;;2.75;65.75;99051.52;1664561;86;21074;-70
2022/02/20 02:52:18;;;;;;;9.55;3.25;;;;;;;2.72;65.70;99045.28;1639331;86;21439;-69
2022/02/20 02:54:45;;;;;;;9.73;3.80;;;;;;;2.70;65.72;99044.20;1647639;85;21035;-69
2022/02/20 02:57:15;;;;;;;10.45;3.60;;;;;;;2.68;65.73;99042.30;1637367;86;21164;-69
2022/02/20 02:59:48;;;;;;;10.70;3.15;;;;;;;2.62;65.76;99038.81;1636907;87;21001;-69
2022/02/20 03:02:19;;;;;;;7.12;2.67;;;;;;;2.58;65.98;99041.80;1637638;87;20918;-70
2022/02/20 03:04:50;;;;;;;8.65;3.00;;;;;;;2.52;66.13;99042.92;1636080;87;20968;-71
2022/02/20 03:07:18;;;;;;;8.25;3.60;;;;;;;2.45;66.37;99051.92;1637571;87;21017;-71
2022/02/20 03:09:45;;;;;;;7.37;2.27;;;;;;;2.40;66.66;99062.28;1637306;87;21180;-71
2022/02/20 03:12:15;;;;;;;8.75;3.40;;;;;;;2.36;66.76;99062.02;1635258;87;20949;-70
2022/02/20 03:14:44;;;;;;;9.00;2.60;;;;;;;2.33;66.93;99057.13;1637216;87;20869;-69
2022/02/20 03:17:18;;;;;;;16.27;4.00;;;;;;;2.28;67.08;99051.70;1612260;87;21026;-69
2022/02/20 03:19:46;;;;;;;9.43;2.92;;;;;;;2.23;67.25;99053.08;1615093;87;21008;-69
2022/02/20 03:22:15;;;;;;;9.35;3.27;;;;;;;2.19;67.46;99055.52;1614990;87;21127;-70
2022/02/20 03:24:45;;;;;;;7.45;3.42;;;;;;;2.16;67.60;99063.70;1637231;87;20961;-70
2022/02/20 03:27:14;;;;;;;10.63;3.70;;;;;;;2.15;67.74;99061.27;1637641;87;20992;-68
2022/02/20 03:29:45;;;;;;;11.63;3.27;;;;;;;2.12;67.91;99066.69;1637460;87;21091;-70
2022/02/20 03:32:14;;;;;;;8.13;3.22;;;;;;;2.09;68.04;99080.83;1637158;87;21005;-70
2022/02/20 03:34:43;;;;;;;7.25;3.15;;;;;;;2.05;68.24;99074.30;1637311;86;21169;-69
2022/02/20 03:37:13;;;;;;;9.55;3.45;;;;;;;2.02;68.41;99078.93;1637505;87;21100;-69
2022/02/20 03:39:43;;;;;;;10.45;3.80;;;;;;;2.00;68.57;99084.64;1616512;87;20933;-70
2022/02/20 03:42:10;;;;;;;17.57;5.22;;;;;;;1.98;68.71;99078.66;1637585;87;21057;-70
2022/02/20 03:44:53;;;;;;;9.08;4.00;;;;;;;1.97;68.82;99084.38;1637045;87;21016;-69
2022/02/20 03:47:20;;;;;;;15.93;4.97;;;;;;;1.92;69.07;99078.41;1614896;87;21181;-69
2022/02/20 03:49:49;;;;;;;13.62;4.40;;;;;;;1.90;69.24;99082.75;1636456;87;21085;-69
2022/02/20 03:52:21;;;;;;;12.15;3.55;;;;;;;1.91;69.44;99084.38;1635972;87;21061;-70
2022/02/20 03:54:52;;;;;;;14.87;3.47;;;;;;;1.92;69.54;99088.73;1650173;85;20981;-69
2022/02/20 03:57:21;;;;;;;10.25;3.52;;;;;;;1.92;69.57;99091.98;1664220;86;21005;-69
2022/02/20 03:59:55;;;;;;;10.78;2.92;;;;;;;1.90;69.57;99088.19;1657603;86;21150;-66
2022/02/20 04:02:34;;;;;;;11.63;3.92;;;;;;;1.88;69.67;99099.87;1661884;86;20910;-70
2022/02/20 04:05:03;;;;;;;7.85;3.17;;;;;;;1.85;69.75;99102.31;1664282;86;20961;-70
2022/02/20 04:07:37;;;;;;;8.35;3.33;;;;;;;1.82;69.80;99103.69;1664648;86;20933;-69
2022/02/20 04:10:09;;;;;;;10.03;3.95;;;;;;;1.79;69.85;99099.59;1664472;86;20981;-70
2022/02/20 04:12:40;;;;;;;8.85;3.08;;;;;;;1.77;70.03;99096.89;1664292;86;21204;-70
2022/02/20 04:15:11;;;;;;;11.83;3.42;;;;;;;1.74;70.07;99101.52;1663908;86;20965;-69
2022/02/20 04:17:47;;;;;;;12.33;3.85;;;;;;;1.70;70.19;99096.63;1664210;86;21061;-70
2022/02/20 04:20:16;;;;;;;8.53;3.42;;;;;;;1.68;70.35;99102.87;1663598;86;21034;-70
2022/02/20 04:22:47;;;;;;;12.82;4.08;;;;;;;1.67;70.48;99105.86;1664521;86;20965;-69
2022/02/20 04:25:17;;;;;;;10.78;3.45;;;;;;;1.65;70.53;99105.30;1640387;86;21069;-69
2022/02/20 04:27:48;;;;;;;13.80;4.08;;;;;;;1.62;70.63;99094.42;1664203;86;20909;-69
2022/02/20 04:30:20;;;;;;;9.88;3.87;;;;;;;1.59;70.83;99100.40;1664175;86;21486;-69
2022/02/20 04:32:56;;;;;;;13.62;4.17;;;;;;;1.56;70.92;99095.52;1664084;86;21119;-69
2022/02/20 04:35:25;;;;;;;16.20;4.05;;;;;;;1.54;70.98;99103.11;1664230;86;21037;-70
2022/02/20 04:37:54;;;;;;;12.30;3.72;;;;;;;1.51;71.10;99109.09;1664516;86;22019;-70
2022/02/20 04:40:26;;;;;;;9.20;3.87;;;;;;;1.47;71.26;99104.73;1639763;86;21057;-70
2022/02/20 04:42:55;;;;;;;;;;;;;;;1.43;71.40;99105.81;1666678;86;20986;-69
2022/02/20 04:45:22;;;;;;;10.58;3.92;;;;;;;1.40;71.53;99110.98;1664250;85;20601;-69
2022/02/20 04:47:54;;;;;;;8.88;3.40;;;;;;;1.36;71.71;99107.99;1664121;86;21045;-70
2022/02/20 04:50:23;;;;;;;7.85;3.15;;;;;;;1.33;71.75;99112.05;1639717;86;21146;-69
2022/02/20 04:52:58;;;;;;;8.48;3.87;;;;;;;1.31;71.95;99111.48;1641577;86;21022;-68
2022/02/20 04:55:37;;;;;;;8.23;3.30;;;;;;;1.32;72.04;99112.31;1645334;86;20975;-70
2022/02/20 04:58:04;;;;;;;14.50;4.05;;;;;;;1.30;72.16;99118.02;1614920;87;20901;-69
2022/02/20 05:00:32;;;;;;;11.20;3.77;;;;;;;1.28;72.18;99124.81;1637288;87;20949;-70
2022/02/20 05:03:00;;;;;;;8.75;3.33;;;;;;;1.28;72.29;99131.03;1637179;86;21325;-70
2022/02/20 05:05:37;;;;;;;9.78;3.25;;;;;;;1.28;72.32;99130.23;1636498;87;21016;-70
2022/02/20 05:08:08;;;;;;;11.80;3.60;;;;;;;1.30;72.36;99133.48;1634536;86;20969;-69
2022/02/20 05:10:39;;;;;;;12.07;2.80;;;;;;;1.30;72.30;99137.55;1637609;87;21449;-70
2022/02/20 05:13:08;;;;;;;11.03;2.95;;;;;;;1.31;72.30;99131.05;1637457;87;21435;-70
2022/02/20 05:15:47;;;;;;;9.67;3.23;;;;;;;1.32;72.30;99139.46;1637505;87;21063;-68
2022/02/20 05:18:15;;;;;;;11.60;2.87;;;;;;;1.32;72.34;99144.89;1637145;87;21809;-69
2022/02/20 05:20:42;;;;;;;10.45;3.58;;;;;;;1.31;72.37;99148.70;1637492;87;21021;-69
2022/02/20 05:23:12;;;;;;;14.70;5.28;;;;;;;1.29;72.40;99161.72;1633365;87;21080;-69
2022/02/20 05:25:40;;;;;;;8.88;3.60;;;;;;;1.28;72.53;99156.83;1637545;86;21071;-68
2022/02/20 05:28:11;;;;;;;11.63;3.67;;;;;;;1.27;72.59;99163.88;1637309;86;21431;-69
2022/02/20 05:30:39;;;;;;;7.60;3.95;;;;;;;1.28;72.64;99163.61;1637161;87;21035;-68
2022/02/20 05:33:13;;;;;;;12.28;4.42;;;;;;;1.29;72.75;99165.80;1634858;87;21052;-69
2022/02/20 05:35:41;;;;;;;10.40;4.40;;;;;;;1.30;72.80;99175.03;1637501;87;21048;-67
2022/02/20 05:38:11;;;;;;;13.50;3.87;;;;;;;1.33;72.73;99173.69;1637281;87;21045;-68
2022/02/20 05:40:38;;;;;;;17.60;4.20;;;;;;;1.35;72.72;99167.44;1637437;87;21103;-69
2022/02/20 05:43:11;;;;;;;11.95;4.00;;;;;;;1.40;72.75;99174.23;1615466;87;20941;-70
2022/02/20 05:45:40;;;;;;;13.18;3.70;;;;;;;1.42;72.76;99170.72;1636086;87;21679;-69
2022/02/20 05:48:16;;;;;;;9.25;4.30;;;;;;;1.44;72.73;99182.14;1636935;87;21494;-69
2022/02/20 05:50:46;;;;;;;10.00;3.42;;;;;;;1.48;72.79;99185.14;1634364;87;20854;-68
2022/02/20 05:53:18;;;;;;;11.48;3.50;;;;;;;1.51;72.77;99182.41;1636175;87;20989;-69
2022/02/20 05:55:47;;;;;;;6.28;2.75;;;;;;;1.53;72.74;99178.89;1619185;86;21009;-69
2022/02/20 05:58:17;;;;;;;9.60;3.20;;;;;;;1.55;72.73;99186.23;1636278;87;21010;-70
2022/02/20 06:00:59;;;;;;;9.40;2.77;;;;;;;1.58;72.67;99191.95;1636118;87;21010;-69
2022/02/20 06:03:30;;;;;;;12.25;3.42;;;;;;;1.63;72.64;99188.42;1636265;87;20985;-68
2022/02/20 06:06:16;;;;;;;11.38;3.33;;;;;;;1.68;72.63;99191.16;1636449;87;21076;-70
2022/02/20 06:08:52;;;;;;;12.95;3.33;;;;;;;1.74;72.53;99200.11;1609650;87;21522;-70
2022/02/20 06:11:21;;;;;;;13.25;3.35;;;;;;;1.80;72.40;99200.95;1635226;87;21021;-69
2022/02/20 06:14:14;;;;;;;7.83;2.75;;;;;;;1.85;72.28;99199.59;1636519;87;21107;-70
2022/02/20 06:16:45;;;;;;;12.78;3.45;;;;;;;1.90;72.20;99203.69;1635623;87;20923;-70
2022/02/20 06:19:33;;;;;;;9.63;3.72;;;;;;;1.94;72.09;99204.76;1615936;87;21907;-69
2022/02/20 06:22:05;;;;;;;15.05;4.10;;;;;;;1.98;71.85;99200.96;1598034;87;21542;-69
2022/02/20 06:24:43;;;;;;;12.15;3.80;;;;;;;2.03;71.79;99211.05;1634621;87;21010;-70
2022/02/20 06:27:13;;;;;;;12.60;4.42;;;;;;;2.06;71.76;99209.14;1634971;87;21013;-67
2022/02/20 06:29:45;;;;;;;8.80;3.25;;;;;;;2.11;71.75;99211.86;1636459;87;21037;-70
2022/02/20 06:32:18;;;;;;;8.18;2.90;;;;;;;2.18;71.41;99207.52;1636602;87;21136;-68
2022/02/20 06:34:48;;;;;;;9.78;3.12;;;;;;;2.23;71.32;99217.56;1636470;87;20998;-69
2022/02/20 06:37:18;;;;;;;11.12;3.42;;;;;;;2.26;71.26;99223.81;1636691;87;20974;-70
2022/02/20 06:39:48;;;;;;;14.25;3.95;;;;;;;2.30;71.06;99217.55;1636403;87;20977;-70
2022/02/20 06:42:17;;;;;;;13.85;3.67;;;;;;;2.37;70.94;99228.72;1636602;87;20954;-72
2022/02/20 06:44:45;;;;;;;11.18;4.05;;;;;;;2.41;70.82;99225.71;1623351;87;21532;-69
2022/02/20 06:47:33;;;;;;;10.58;3.52;;;;;;;2.45;70.74;99228.17;1636311;87;20966;-70
2022/02/20 06:50:21;;;;;;;9.85;3.17;;;;;;;2.51;70.68;99238.48;1636391;87;21016;-70
2022/02/20 06:53:05;;;;;;;9.68;2.90;;;;;;;2.59;70.65;99247.48;1635958;87;21002;-70
2022/02/20 06:55:49;;;;;;;11.48;3.95;;;;;;;2.66;70.57;99250.72;1635274;86;36383;-68
2022/02/20 06:58:19;;;;;;;10.82;4.67;;;;;;;2.75;70.40;99246.91;1636797;87;21822;-71
2022/02/20 07:00:49;;;;;;;12.53;3.92;;;;;;;2.80;70.09;99248.27;1636768;87;21001;-69
2022/02/20 07:03:20;;;;;;;11.12;3.52;;;;;;;2.85;69.93;99245.27;1635196;86;20970;-69
2022/02/20 07:05:49;;;;;;;5.55;2.52;;;;;;;2.91;69.67;99257.77;1636407;87;21056;-70
2022/02/20 07:08:17;;;;;;;12.13;3.67;;;;;;;2.97;69.65;99257.23;1637235;87;20974;-69
2022/02/20 07:10:50;;;;;;;9.73;3.35;;;;;;;3.03;69.44;99254.75;1636949;87;21069;-72
2022/02/20 07:13:21;;;;;;;10.10;3.30;;;;;;;3.10;69.28;99254.46;1636853;87;20966;-70
2022/02/20 07:15:50;;;;;;;14.78;3.02;;;;;;;3.18;69.08;99252.53;1636953;87;21085;-70
2022/02/20 07:18:23;;;;;;;10.88;3.62;;;;;;;3.25;68.48;99260.41;1637037;87;21004;-71
2022/02/20 07:20:56;;;;;;;6.83;2.30;;;;;;;3.28;68.08;99262.03;1636112;87;20918;-71
2022/02/20 07:23:26;;;;;;;9.93;2.55;;;;;;;3.30;67.80;99263.11;1637177;87;21019;-71
2022/02/20 07:26:15;;;;;;;9.23;2.60;;;;;;;3.32;67.82;99260.11;1636889;87;21535;-72
2022/02/20 07:28:55;;;;;;;10.03;3.00;;;;;;;3.38;67.98;99253.54;1636461;86;21045;-70
2022/02/20 07:31:29;;;;;;;6.83;2.10;;;;;;;3.46;67.54;99250.80;1636821;87;21010;-70
2022/02/20 07:33:57;;;;;;;11.30;3.83;;;;;;;3.50;67.57;99258.12;1637050;86;20914;-71
2022/02/20 07:36:29;;;;;;;13.55;3.02;;;;;;;3.58;67.55;99248.58;1636964;87;21820;-71
2022/02/20 07:39:05;;;;;;;8.90;3.35;;;;;;;3.64;67.17;99243.90;1633834;87;20969;-72
2022/02/20 07:41:48;;;;;;;6.42;2.92;;;;;;;3.72;67.30;99247.39;1615753;87;20986;-68
2022/02/20 07:44:20;;;;;;;11.15;3.42;;;;;;;3.80;66.99;99240.55;1635711;87;20990;-71
2022/02/20 07:46:56;;;;;;;7.65;2.83;;;;;;;3.83;66.73;99238.63;1636724;87;21026;-71
2022/02/20 07:49:30;;;;;;;9.93;2.90;;;;;;;3.91;66.78;99241.86;1636844;87;21133;-70
2022/02/20 07:51:58;;;;;;;13.05;3.10;;;;;;;3.99;66.16;99236.59;1636878;87;20902;-70
2022/02/20 07:54:26;;;;;;;7.28;3.02;;;;;;;4.03;65.91;99236.85;1636879;87;20941;-70
2022/02/20 07:57:08;;;;;;;9.28;4.03;;;;;;;4.08;66.16;99236.82;1636342;87;20976;-73
2022/02/20 07:59:36;;;;;;;9.18;3.05;;;;;;;4.14;65.91;99224.77;1637160;87;20930;-71
2022/02/20 08:02:26;;;;;;;8.18;2.80;;;;;;;4.22;65.89;99235.63;1635939;87;21613;-74
2022/02/20 08:04:59;;;;;;;9.80;3.40;;;;;;;4.31;65.60;99237.21;1636965;87;20965;-70
2022/02/20 08:07:30;;;;;;;10.30;2.83;;;;;;;4.41;65.88;99236.84;1637274;87;20890;-71
2022/02/20 08:10:02;;;;;;;9.63;3.42;;;;;;;4.49;65.20;99236.23;1637404;87;21013;-70
2022/02/20 08:12:32;;;;;;;11.33;3.77;;;;;;;4.56;64.48;99239.98;1636908;87;21526;-71
2022/02/20 08:15:00;;;;;;;11.70;3.92;;;;;;;4.58;64.47;99237.25;1637047;87;22000;-71
2022/02/20 08:17:30;;;;;;;17.02;3.67;;;;;;;4.62;64.42;99242.95;1637134;87;20958;-70
2022/02/20 08:20:02;;;;;;;12.28;4.40;;;;;;;4.67;64.22;99247.55;1637612;87;21029;-71
2022/02/20 08:22:28;;;;;;;10.23;3.92;;;;;;;4.70;63.92;99252.42;1637271;87;20989;-70
2022/02/20 08:25:00;;;;;;;9.28;2.98;;;;;;;4.74;63.87;99252.13;1637324;87;21017;-69
2022/02/20 08:27:33;;;;;;;11.10;3.65;;;;;;;4.76;63.81;99249.91;1636169;87;21036;-69
2022/02/20 08:30:08;;;;;;;23.12;4.55;;;;;;;4.81;63.82;99243.03;1615913;87;20993;-71
2022/02/20 08:32:35;;;;;;;10.03;3.42;;;;;;;4.86;62.58;99247.08;1615292;87;21548;-71
2022/02/20 08:35:10;;;;;;;10.32;3.70;;;;;;;4.84;63.15;99250.67;1637159;86;20972;-71
2022/02/20 08:37:54;;;;;;;13.65;3.92;;;;;;;4.87;63.42;99245.99;1637413;87;20912;-71
2022/02/20 08:40:21;;;;;;;10.98;3.95;;;;;;;4.92;62.74;99242.93;1637594;87;21196;-71
2022/02/20 08:43:00;;;;;;;10.35;3.25;;;;;;;4.97;62.62;99240.15;1637290;87;20999;-71
2022/02/20 08:45:28;;;;;;;11.35;3.65;;;;;;;5.04;62.45;99245.27;1637564;87;21095;-71
2022/02/20 08:47:58;;;;;;;14.45;3.33;;;;;;;5.09;62.46;99245.22;1637477;87;20981;-71
2022/02/20 08:50:27;;;;;;;8.60;3.25;;;;;;;5.15;62.06;99250.91;1637488;86;20957;-69
2022/02/20 08:52:59;;;;;;;11.40;4.33;;;;;;;5.19;61.30;99243.73;1637341;87;21173;-69
2022/02/20 08:55:28;;;;;;;12.35;3.90;;;;;;;5.23;61.19;99248.89;1637743;87;21001;-70
2022/02/20 08:57:57;;;;;;;11.35;4.12;;;;;;;5.29;60.20;99246.89;1637330;87;20985;-70
2022/02/20 09:00:25;;;;;;;15.45;5.22;;;;;;;5.34;60.97;99259.70;1637350;87;20981;-70
2022/02/20 09:02:57;;;;;;;11.88;4.40;;;;;;;5.43;61.44;99254.39;1636006;87;21063;-70
2022/02/20 09:05:23;;;;;;;10.90;4.15;;;;;;;5.51;60.92;99244.74;1637210;87;21430;-71
2022/02/20 09:07:50;;;;;;;13.60;4.65;;;;;;;5.58;61.17;99255.56;1637387;87;21033;-69
2022/02/20 09:10:18;;;;;;;8.65;4.05;;;;;;;5.69;60.90;99255.44;1637289;87;21009;-70
2022/02/20 09:12:52;;;;;;;13.53;4.33;;;;;;;5.76;60.06;99257.27;1637136;87;20980;-70
2022/02/20 09:15:19;;;;;;;12.25;3.67;;;;;;;5.79;59.00;99259.95;1637531;87;21003;-69
2022/02/20 09:17:49;;;;;;;10.28;3.58;;;;;;;5.79;58.75;99267.61;1637124;87;21120;-71
2022/02/20 09:20:16;;;;;;;12.55;3.72;;;;;;;5.78;58.12;99259.70;1637329;87;20909;-71
2022/02/20 09:22:46;;;;;;;9.55;3.60;;;;;;;5.82;59.13;99257.98;1636190;87;21470;-72
2022/02/20 09:25:16;;;;;;;18.40;3.75;;;;;;;5.94;59.00;99265.75;1637492;87;21512;-69
2022/02/20 09:27:43;;;;;;;12.13;4.12;;;;;;;6.05;58.84;99267.28;1637534;87;20981;-70
2022/02/20 09:30:16;;;;;;;8.73;2.92;;;;;;;6.13;57.39;99271.81;1635963;87;21022;-71
2022/02/20 09:32:43;;;;;;;12.30;3.60;;;;;;;6.09;57.26;99276.52;1637482;87;20953;-71
2022/02/20 09:35:16;;;;;;;9.90;3.65;;;;;;;6.07;57.27;99286.14;1637542;87;21001;-70
2022/02/20 09:37:43;;;;;;;11.28;3.40;;;;;;;6.10;56.91;99282.81;1637257;87;21028;-71
2022/02/20 09:40:12;;;;;;;17.12;3.87;;;;;;;6.17;57.15;99284.63;1637399;87;21523;-70
2022/02/20 09:42:47;;;;;;;10.82;3.90;;;;;;;6.23;56.06;99274.40;1637651;86;21236;-70
2022/02/20 09:45:13;;;;;;;7.33;3.17;;;;;;;6.24;56.66;99270.57;1637345;87;21581;-69
2022/02/20 09:47:42;;;;;;;12.07;3.00;;;;;;;6.33;57.08;99276.98;1637375;86;21517;-68
2022/02/20 09:50:10;;;;;;;12.10;3.52;;;;;;;6.45;57.08;99273.78;1637280;86;21041;-70
2022/02/20 09:52:37;;;;;;;9.05;3.27;;;;;;;6.57;56.97;99258.27;1615024;87;21565;-72
2022/02/20 09:55:10;;;;;;;10.53;3.05;;;;;;;6.66;56.53;99269.89;1637281;87;23098;-71
2022/02/20 09:57:40;;;;;;;8.18;3.27;;;;;;;6.70;55.49;99246.29;1657725;85;20998;-70
2022/02/20 10:00:10;;;;;;;8.95;3.42;;;;;;;6.71;55.24;99247.91;1664308;86;21001;-71
2022/02/20 10:02:44;;;;;;;11.90;3.03;;;;;;;6.72;54.77;99241.88;1664622;86;21001;-69
2022/02/20 10:05:23;;;;;;;8.55;2.95;;;;;;;6.70;54.97;99238.87;1664634;86;21033;-70
2022/02/20 10:07:51;;;;;;;5.53;2.40;;;;;;;6.78;54.52;99242.86;1664440;86;21569;-70
2022/02/20 10:10:27;;;;;;;11.70;3.22;;;;;;;6.82;53.50;99234.28;1664233;86;21426;-70
2022/02/20 10:13:05;;;;;;;12.30;3.67;;;;;;;6.79;53.66;99235.46;1664229;86;21040;-69
2022/02/20 10:15:39;;;;;;;7.80;3.17;;;;;;;6.79;54.15;99234.88;1664504;86;21043;-70
2022/02/20 10:18:28;;;;;;;8.30;3.27;;;;;;;6.81;53.57;99229.92;1664520;86;21025;-71
2022/02/20 10:21:18;;;;;;;9.05;3.15;;;;;;;6.78;53.42;99225.05;1620347;88;20994;-69
2022/02/20 10:24:09;;;;;;;8.80;3.70;;;;;;;6.79;53.11;99229.41;1657093;86;21034;-71
2022/02/20 10:27:08;;;;;;;6.83;3.08;;;;;;;6.84;53.77;99224.97;1664496;86;21017;-70
2022/02/20 10:30:18;;;;;;;8.60;3.27;;;;;;;6.90;53.00;99211.42;1664175;86;21005;-69
2022/02/20 10:32:52;;;;;;;12.45;3.77;;;;;;;6.93;52.58;99208.89;1653831;86;21427;-70
2022/02/20 10:35:19;;;;;;;10.93;3.67;;;;;;;6.97;52.72;99211.84;1662408;86;21815;-70
2022/02/20 10:37:47;;;;;;;10.48;3.77;;;;;;;7.02;53.23;99206.27;1664443;86;20990;-71
2022/02/20 10:40:31;;;;;;;11.50;3.62;;;;;;;7.12;53.70;99211.27;1639839;86;21037;-71
2022/02/20 10:43:04;;;;;;;10.45;4.20;;;;;;;7.23;52.09;99209.97;1664575;86;21018;-71
2022/02/20 10:45:40;;;;;;;9.90;4.22;;;;;;;7.10;52.01;99201.17;1664952;86;20957;-72
2022/02/20 10:48:19;;;;;;;15.23;3.55;;;;;;;6.98;52.16;99194.27;1664640;86;21478;-71
2022/02/20 10:50:57;;;;;;;7.05;2.90;;;;;;;6.93;52.66;99201.22;1639681;86;20958;-71
2022/02/20 10:53:31;;;;;;;7.17;3.08;;;;;;;6.95;52.35;99190.78;1664748;86;21041;-72
2022/02/20 10:56:04;;;;;;;8.05;3.40;;;;;;;7.03;52.65;99190.62;1664284;86;20990;-71
2022/02/20 10:58:35;;;;;;;7.20;3.30;;;;;;;7.28;52.58;99185.17;1637345;86;20989;-71
2022/02/20 11:01:06;;;;;;;8.00;3.50;;;;;;;7.62;51.36;99180.92;1637277;87;21169;-72
2022/02/20 11:03:41;;;;;;;11.63;3.50;;;;;;;7.87;50.75;99181.45;1637441;87;20969;-72
2022/02/20 11:06:10;;;;;;;12.47;3.60;;;;;;;7.95;50.53;99180.70;1596392;87;21017;-71
2022/02/20 11:08:39;;;;;;;9.35;3.30;;;;;;;7.91;49.91;99172.86;1637146;87;21060;-71
2022/02/20 11:14:05;;;;;;;11.85;3.55;;;;;;;7.52;49.75;99161.41;1637285;87;21142;-68
2022/02/20 11:16:38;;;;;;;;;;;;;;;7.37;50.54;99155.13;1639700;87;20978;-70
2022/02/20 11:19:07;;;;;;;11.60;3.15;;;;;;;7.39;50.07;99152.06;1637551;87;20126;-71
2022/02/20 11:21:39;;;;;;;11.12;3.50;;;;;;;7.40;50.71;99150.97;1615073;87;21162;-71
2022/02/20 11:24:08;;;;;;;10.58;3.98;;;;;;;7.42;50.42;99146.78;1636879;87;21072;-70
2022/02/20 11:26:44;;;;;;;8.10;2.67;;;;;;;7.52;50.72;99142.21;1615715;87;21060;-70
2022/02/20 11:29:14;;;;;;;8.55;3.10;;;;;;;7.61;48.91;99134.86;1637371;87;21032;-71
2022/02/20 11:31:44;;;;;;;9.73;3.33;;;;;;;7.62;49.29;99134.30;1637284;87;21165;-71
2022/02/20 11:34:13;;;;;;;6.78;2.98;;;;;;;7.64;49.17;99132.86;1615828;87;21077;-72
2022/02/20 11:36:57;;;;;;;9.88;4.22;;;;;;;7.62;49.02;99129.64;1612270;87;20961;-70
2022/02/20 11:39:28;;;;;;;11.40;3.90;;;;;;;7.57;48.46;99117.97;1634109;86;20957;-70
2022/02/20 11:42:10;;;;;;;10.03;3.92;;;;;;;7.46;48.67;99125.61;1615579;87;20993;-70
2022/02/20 11:44:53;;;;;;;8.33;3.72;;;;;;;7.33;48.80;99123.98;1636148;87;21065;-72
2022/02/20 11:47:42;;;;;;;13.30;3.40;;;;;;;7.18;48.63;99116.91;1637518;87;20969;-71
2022/02/20 11:50:29;;;;;;;11.78;4.15;;;;;;;7.01;48.95;99118.91;1637166;87;21096;-69
2022/02/20 11:53:06;;;;;;;10.38;3.15;;;;;;;6.91;49.54;99113.88;1637209;87;21177;-72
2022/02/20 11:55:40;;;;;;;12.70;3.98;;;;;;;6.92;50.29;99114.15;1637287;87;21013;-71
2022/02/20 11:58:21;;;;;;;13.45;4.33;;;;;;;6.97;49.38;99113.77;1636756;85;20962;-71
2022/02/20 12:01:08;;;;;;;13.22;4.37;;;;;;;6.99;49.08;99111.00;1636924;87;21029;-71
2022/02/20 12:03:53;;;;;;;9.25;3.95;;;;;;;7.00;49.99;99113.98;1634526;87;20966;-70
2022/02/20 12:06:25;;;;;;;12.25;3.62;;;;;;;7.06;49.48;99114.11;1636490;87;21550;-71